sensor_id;sensor_type;location;lat;lon;timestamp;P1;durP1;ratioP1;P2;durP2;ratioP2
12112;SDS011;6120;52.250;8.478;2023-07-02T00:00:00;2.88;;;2.67;;
12112;SDS011;6120;52.250;8.478;2023-07-02T00:02:27;2.90;;;2.70;;
12112;SDS011;6120;52.250;8.478;2023-07-02T00:04:53;2.97;;;2.72;;
12112;SDS011;6120;52.250;8.478;2023-07-02T00:07:20;3.95;;;3.10;;
12112;SDS011;6120;52.250;8.478;2023-07-02T00:09:47;3.25;;;2.95;;
12112;SDS011;6120;52.250;8.478;2023-07-02T00:12:14;2.90;;;2.70;;
12112;SDS011;6120;52.250;8.478;2023-07-02T00:14:40;3.17;;;2.80;;
12112;SDS011;6120;52.250;8.478;2023-07-02T00:17:07;2.88;;;2.60;;
12112;SDS011;6120;52.250;8.478;2023-07-02T00:19:33;3.10;;;2.80;;
12112;SDS011;6120;52.250;8.478;2023-07-02T00:22:00;4.85;;;3.15;;
12112;SDS011;6120;52.250;8.478;2023-07-02T00:24:27;3.00;;;2.55;;
12112;SDS011;6120;52.250;8.478;2023-07-02T00:26:53;3.20;;;2.85;;
12112;SDS011;6120;52.250;8.478;2023-07-02T00:29:20;3.03;;;2.72;;
12112;SDS011;6120;52.250;8.478;2023-07-02T00:31:47;4.50;;;2.85;;
12112;SDS011;6120;52.250;8.478;2023-07-02T00:34:13;3.85;;;2.83;;
12112;SDS011;6120;52.250;8.478;2023-07-02T00:36:40;3.00;;;2.70;;
12112;SDS011;6120;52.250;8.478;2023-07-02T00:39:08;3.92;;;3.15;;
12112;SDS011;6120;52.250;8.478;2023-07-02T00:41:34;3.33;;;3.03;;
12112;SDS011;6120;52.250;8.478;2023-07-02T00:44:01;2.90;;;2.70;;
12112;SDS011;6120;52.250;8.478;2023-07-02T00:46:28;3.20;;;2.90;;
12112;SDS011;6120;52.250;8.478;2023-07-02T00:48:55;2.97;;;2.78;;
12112;SDS011;6120;52.250;8.478;2023-07-02T00:51:26;3.13;;;2.83;;
12112;SDS011;6120;52.250;8.478;2023-07-02T00:53:54;3.25;;;2.95;;
12112;SDS011;6120;52.250;8.478;2023-07-02T00:56:23;2.95;;;2.75;;
12112;SDS011;6120;52.250;8.478;2023-07-02T00:58:51;5.03;;;3.65;;
12112;SDS011;6120;52.250;8.478;2023-07-02T01:01:23;3.42;;;3.13;;
12112;SDS011;6120;52.250;8.478;2023-07-02T01:04:01;4.15;;;3.78;;
12112;SDS011;6120;52.250;8.478;2023-07-02T01:06:30;3.65;;;3.35;;
12112;SDS011;6120;52.250;8.478;2023-07-02T01:08:59;4.00;;;3.47;;
12112;SDS011;6120;52.250;8.478;2023-07-02T01:11:30;3.28;;;2.97;;
12112;SDS011;6120;52.250;8.478;2023-07-02T01:13:59;4.30;;;3.85;;
12112;SDS011;6120;52.250;8.478;2023-07-02T01:16:29;3.72;;;3.33;;
12112;SDS011;6120;52.250;8.478;2023-07-02T01:18:59;3.78;;;3.47;;
12112;SDS011;6120;52.250;8.478;2023-07-02T01:21:30;4.10;;;3.65;;
12112;SDS011;6120;52.250;8.478;2023-07-02T01:23:59;5.72;;;3.97;;
12112;SDS011;6120;52.250;8.478;2023-07-02T01:26:30;5.05;;;3.92;;
12112;SDS011;6120;52.250;8.478;2023-07-02T01:29:16;4.40;;;4.00;;
12112;SDS011;6120;52.250;8.478;2023-07-02T01:31:44;4.57;;;4.18;;
12112;SDS011;6120;52.250;8.478;2023-07-02T01:34:11;4.38;;;3.95;;
12112;SDS011;6120;52.250;8.478;2023-07-02T01:36:39;4.28;;;3.88;;
12112;SDS011;6120;52.250;8.478;2023-07-02T01:39:06;4.93;;;4.28;;
12112;SDS011;6120;52.250;8.478;2023-07-02T01:41:37;4.43;;;4.03;;
12112;SDS011;6120;52.250;8.478;2023-07-02T01:44:08;4.13;;;3.80;;
12112;SDS011;6120;52.250;8.478;2023-07-02T01:46:34;4.57;;;4.18;;
12112;SDS011;6120;52.250;8.478;2023-07-02T01:49:01;4.60;;;4.20;;
12112;SDS011;6120;52.250;8.478;2023-07-02T01:51:28;5.88;;;4.30;;
12112;SDS011;6120;52.250;8.478;2023-07-02T01:53:54;5.72;;;4.25;;
12112;SDS011;6120;52.250;8.478;2023-07-02T01:56:21;4.30;;;4.00;;
12112;SDS011;6120;52.250;8.478;2023-07-02T01:58:48;5.18;;;3.95;;
12112;SDS011;6120;52.250;8.478;2023-07-02T02:01:15;5.35;;;4.15;;
12112;SDS011;6120;52.250;8.478;2023-07-02T02:03:41;6.00;;;4.50;;
12112;SDS011;6120;52.250;8.478;2023-07-02T02:06:08;4.38;;;3.58;;
12112;SDS011;6120;52.250;8.478;2023-07-02T02:08:35;4.20;;;3.67;;
12112;SDS011;6120;52.250;8.478;2023-07-02T02:11:02;4.43;;;4.03;;
12112;SDS011;6120;52.250;8.478;2023-07-02T02:13:28;4.35;;;3.95;;
12112;SDS011;6120;52.250;8.478;2023-07-02T02:15:55;4.07;;;3.78;;
12112;SDS011;6120;52.250;8.478;2023-07-02T02:18:22;6.13;;;3.63;;
12112;SDS011;6120;52.250;8.478;2023-07-02T02:20:48;4.00;;;3.60;;
12112;SDS011;6120;52.250;8.478;2023-07-02T02:23:16;4.55;;;3.70;;
12112;SDS011;6120;52.250;8.478;2023-07-02T02:25:42;4.30;;;3.90;;
12112;SDS011;6120;52.250;8.478;2023-07-02T02:28:09;3.85;;;3.55;;
12112;SDS011;6120;52.250;8.478;2023-07-02T02:30:36;3.95;;;3.55;;
12112;SDS011;6120;52.250;8.478;2023-07-02T02:33:03;4.72;;;4.20;;
12112;SDS011;6120;52.250;8.478;2023-07-02T02:35:30;4.35;;;3.63;;
12112;SDS011;6120;52.250;8.478;2023-07-02T02:37:56;3.75;;;3.45;;
12112;SDS011;6120;52.250;8.478;2023-07-02T02:40:23;3.72;;;3.42;;
12112;SDS011;6120;52.250;8.478;2023-07-02T02:42:50;3.70;;;3.40;;
12112;SDS011;6120;52.250;8.478;2023-07-02T02:45:16;4.05;;;3.65;;
12112;SDS011;6120;52.250;8.478;2023-07-02T02:47:43;3.63;;;3.33;;
12112;SDS011;6120;52.250;8.478;2023-07-02T02:50:12;3.47;;;3.17;;
12112;SDS011;6120;52.250;8.478;2023-07-02T02:52:39;4.90;;;4.10;;
12112;SDS011;6120;52.250;8.478;2023-07-02T02:55:06;4.45;;;4.05;;
12112;SDS011;6120;52.250;8.478;2023-07-02T02:57:34;3.97;;;3.65;;
12112;SDS011;6120;52.250;8.478;2023-07-02T03:00:00;5.50;;;4.25;;
12112;SDS011;6120;52.250;8.478;2023-07-02T03:02:27;3.90;;;3.60;;
12112;SDS011;6120;52.250;8.478;2023-07-02T03:04:54;4.60;;;3.60;;
12112;SDS011;6120;52.250;8.478;2023-07-02T03:07:23;4.75;;;4.00;;
12112;SDS011;6120;52.250;8.478;2023-07-02T03:09:50;4.90;;;4.38;;
12112;SDS011;6120;52.250;8.478;2023-07-02T03:12:16;4.22;;;3.58;;
12112;SDS011;6120;52.250;8.478;2023-07-02T03:14:43;4.10;;;3.70;;
12112;SDS011;6120;52.250;8.478;2023-07-02T03:17:10;4.15;;;3.55;;
12112;SDS011;6120;52.250;8.478;2023-07-02T03:19:36;4.63;;;3.40;;
12112;SDS011;6120;52.250;8.478;2023-07-02T03:22:03;4.05;;;3.63;;
12112;SDS011;6120;52.250;8.478;2023-07-02T03:24:30;4.32;;;3.40;;
12112;SDS011;6120;52.250;8.478;2023-07-02T03:26:56;4.88;;;3.40;;
12112;SDS011;6120;52.250;8.478;2023-07-02T03:29:23;3.80;;;3.25;;
12112;SDS011;6120;52.250;8.478;2023-07-02T03:31:50;3.78;;;3.28;;
12112;SDS011;6120;52.250;8.478;2023-07-02T03:34:16;4.20;;;3.58;;
12112;SDS011;6120;52.250;8.478;2023-07-02T03:36:43;4.05;;;3.65;;
12112;SDS011;6120;52.250;8.478;2023-07-02T03:39:10;3.75;;;3.35;;
12112;SDS011;6120;52.250;8.478;2023-07-02T03:41:37;3.20;;;2.90;;
12112;SDS011;6120;52.250;8.478;2023-07-02T03:44:04;4.05;;;3.38;;
12112;SDS011;6120;52.250;8.478;2023-07-02T03:46:30;3.38;;;3.08;;
12112;SDS011;6120;52.250;8.478;2023-07-02T03:48:57;4.20;;;3.58;;
12112;SDS011;6120;52.250;8.478;2023-07-02T03:51:24;4.22;;;3.65;;
12112;SDS011;6120;52.250;8.478;2023-07-02T03:53:51;3.60;;;3.05;;
12112;SDS011;6120;52.250;8.478;2023-07-02T03:56:17;3.65;;;3.33;;
12112;SDS011;6120;52.250;8.478;2023-07-02T03:58:44;3.25;;;2.95;;
12112;SDS011;6120;52.250;8.478;2023-07-02T04:01:12;4.13;;;3.35;;
12112;SDS011;6120;52.250;8.478;2023-07-02T04:03:47;3.78;;;3.20;;
12112;SDS011;6120;52.250;8.478;2023-07-02T04:06:16;3.42;;;3.13;;
12112;SDS011;6120;52.250;8.478;2023-07-02T04:08:43;4.10;;;3.67;;
12112;SDS011;6120;52.250;8.478;2023-07-02T04:11:10;3.78;;;3.45;;
12112;SDS011;6120;52.250;8.478;2023-07-02T04:13:38;4.33;;;3.60;;
12112;SDS011;6120;52.250;8.478;2023-07-02T04:16:05;4.07;;;3.47;;
12112;SDS011;6120;52.250;8.478;2023-07-02T04:18:32;3.72;;;3.25;;
12112;SDS011;6120;52.250;8.478;2023-07-02T04:20:59;3.80;;;3.20;;
12112;SDS011;6120;52.250;8.478;2023-07-02T04:23:27;4.10;;;3.13;;
12112;SDS011;6120;52.250;8.478;2023-07-02T04:25:54;4.20;;;3.47;;
12112;SDS011;6120;52.250;8.478;2023-07-02T04:28:40;3.63;;;3.33;;
12112;SDS011;6120;52.250;8.478;2023-07-02T04:31:07;3.70;;;3.25;;
12112;SDS011;6120;52.250;8.478;2023-07-02T04:33:34;3.85;;;3.45;;
12112;SDS011;6120;52.250;8.478;2023-07-02T04:36:03;4.22;;;3.50;;
12112;SDS011;6120;52.250;8.478;2023-07-02T04:38:30;4.03;;;3.63;;
12112;SDS011;6120;52.250;8.478;2023-07-02T04:40:56;5.18;;;3.50;;
12112;SDS011;6120;52.250;8.478;2023-07-02T04:43:32;4.43;;;3.40;;
12112;SDS011;6120;52.250;8.478;2023-07-02T04:45:59;5.43;;;3.83;;
12112;SDS011;6120;52.250;8.478;2023-07-02T04:48:26;3.63;;;3.30;;
12112;SDS011;6120;52.250;8.478;2023-07-02T04:50:53;4.50;;;3.88;;
12112;SDS011;6120;52.250;8.478;2023-07-02T04:53:20;3.72;;;3.33;;
12112;SDS011;6120;52.250;8.478;2023-07-02T04:55:46;5.53;;;3.67;;
12112;SDS011;6120;52.250;8.478;2023-07-02T04:58:13;3.63;;;3.25;;
12112;SDS011;6120;52.250;8.478;2023-07-02T05:00:40;5.80;;;3.60;;
12112;SDS011;6120;52.250;8.478;2023-07-02T05:03:06;3.95;;;3.55;;
12112;SDS011;6120;52.250;8.478;2023-07-02T05:05:33;3.38;;;3.08;;
12112;SDS011;6120;52.250;8.478;2023-07-02T05:08:00;3.88;;;3.30;;
12112;SDS011;6120;52.250;8.478;2023-07-02T05:10:27;4.75;;;3.85;;
12112;SDS011;6120;52.250;8.478;2023-07-02T05:12:53;4.05;;;3.42;;
12112;SDS011;6120;52.250;8.478;2023-07-02T05:15:20;5.43;;;3.80;;
12112;SDS011;6120;52.250;8.478;2023-07-02T05:17:46;4.72;;;3.92;;
12112;SDS011;6120;52.250;8.478;2023-07-02T05:20:13;4.65;;;3.80;;
12112;SDS011;6120;52.250;8.478;2023-07-02T05:22:40;4.70;;;3.33;;
12112;SDS011;6120;52.250;8.478;2023-07-02T05:25:07;4.82;;;3.78;;
12112;SDS011;6120;52.250;8.478;2023-07-02T05:27:34;4.47;;;3.90;;
12112;SDS011;6120;52.250;8.478;2023-07-02T05:30:00;4.97;;;3.92;;
12112;SDS011;6120;52.250;8.478;2023-07-02T05:32:27;5.82;;;3.58;;
12112;SDS011;6120;52.250;8.478;2023-07-02T05:34:54;5.13;;;3.88;;
12112;SDS011;6120;52.250;8.478;2023-07-02T05:37:20;5.05;;;3.80;;
12112;SDS011;6120;52.250;8.478;2023-07-02T05:39:47;4.55;;;3.58;;
12112;SDS011;6120;52.250;8.478;2023-07-02T05:42:14;4.90;;;4.40;;
12112;SDS011;6120;52.250;8.478;2023-07-02T05:44:41;4.70;;;3.70;;
12112;SDS011;6120;52.250;8.478;2023-07-02T05:47:08;5.22;;;4.15;;
12112;SDS011;6120;52.250;8.478;2023-07-02T05:49:34;4.88;;;3.83;;
12112;SDS011;6120;52.250;8.478;2023-07-02T05:52:01;5.85;;;4.00;;
12112;SDS011;6120;52.250;8.478;2023-07-02T05:54:28;4.63;;;3.58;;
12112;SDS011;6120;52.250;8.478;2023-07-02T05:56:54;6.35;;;3.88;;
12112;SDS011;6120;52.250;8.478;2023-07-02T05:59:21;6.28;;;3.97;;
12112;SDS011;6120;52.250;8.478;2023-07-02T06:01:48;5.93;;;3.88;;
12112;SDS011;6120;52.250;8.478;2023-07-02T06:04:14;5.40;;;3.83;;
12112;SDS011;6120;52.250;8.478;2023-07-02T06:06:41;4.63;;;3.72;;
12112;SDS011;6120;52.250;8.478;2023-07-02T06:09:08;5.63;;;3.85;;
12112;SDS011;6120;52.250;8.478;2023-07-02T06:11:35;4.57;;;3.95;;
12112;SDS011;6120;52.250;8.478;2023-07-02T06:14:01;5.47;;;4.10;;
12112;SDS011;6120;52.250;8.478;2023-07-02T06:16:28;4.75;;;3.60;;
12112;SDS011;6120;52.250;8.478;2023-07-02T06:18:55;6.63;;;4.00;;
12112;SDS011;6120;52.250;8.478;2023-07-02T06:21:22;4.40;;;3.35;;
12112;SDS011;6120;52.250;8.478;2023-07-02T06:23:49;5.05;;;3.92;;
12112;SDS011;6120;52.250;8.478;2023-07-02T06:26:17;5.00;;;4.30;;
12112;SDS011;6120;52.250;8.478;2023-07-02T06:28:44;5.93;;;3.97;;
12112;SDS011;6120;52.250;8.478;2023-07-02T06:31:10;7.03;;;4.13;;
12112;SDS011;6120;52.250;8.478;2023-07-02T06:36:06;4.70;;;3.22;;
12112;SDS011;6120;52.250;8.478;2023-07-02T06:38:36;4.57;;;3.40;;
12112;SDS011;6120;52.250;8.478;2023-07-02T06:41:03;4.88;;;4.05;;
12112;SDS011;6120;52.250;8.478;2023-07-02T06:43:30;5.45;;;3.88;;
12112;SDS011;6120;52.250;8.478;2023-07-02T06:45:56;5.32;;;3.67;;
12112;SDS011;6120;52.250;8.478;2023-07-02T06:48:23;5.53;;;3.95;;
12112;SDS011;6120;52.250;8.478;2023-07-02T06:50:50;8.13;;;4.07;;
12112;SDS011;6120;52.250;8.478;2023-07-02T06:53:17;7.47;;;4.38;;
12112;SDS011;6120;52.250;8.478;2023-07-02T06:55:43;4.95;;;3.95;;
12112;SDS011;6120;52.250;8.478;2023-07-02T06:58:10;5.93;;;4.28;;
12112;SDS011;6120;52.250;8.478;2023-07-02T07:00:37;4.90;;;3.90;;
12112;SDS011;6120;52.250;8.478;2023-07-02T07:03:04;5.78;;;3.63;;
12112;SDS011;6120;52.250;8.478;2023-07-02T07:05:31;4.20;;;3.53;;
12112;SDS011;6120;52.250;8.478;2023-07-02T07:07:59;5.85;;;3.90;;
12112;SDS011;6120;52.250;8.478;2023-07-02T07:10:26;4.88;;;4.03;;
12112;SDS011;6120;52.250;8.478;2023-07-02T07:12:53;4.80;;;3.83;;
12112;SDS011;6120;52.250;8.478;2023-07-02T07:15:20;6.43;;;4.38;;
12112;SDS011;6120;52.250;8.478;2023-07-02T07:17:47;7.43;;;4.20;;
12112;SDS011;6120;52.250;8.478;2023-07-02T07:20:14;7.60;;;4.72;;
12112;SDS011;6120;52.250;8.478;2023-07-02T07:22:41;5.60;;;4.28;;
12112;SDS011;6120;52.250;8.478;2023-07-02T07:25:08;5.82;;;4.28;;
12112;SDS011;6120;52.250;8.478;2023-07-02T07:27:35;6.65;;;4.60;;
12112;SDS011;6120;52.250;8.478;2023-07-02T07:30:01;5.63;;;4.45;;
12112;SDS011;6120;52.250;8.478;2023-07-02T07:32:28;6.97;;;4.97;;
12112;SDS011;6120;52.250;8.478;2023-07-02T07:34:55;8.98;;;4.55;;
12112;SDS011;6120;52.250;8.478;2023-07-02T07:37:22;5.70;;;4.50;;
12112;SDS011;6120;52.250;8.478;2023-07-02T07:39:49;5.15;;;4.22;;
12112;SDS011;6120;52.250;8.478;2023-07-02T07:42:15;6.53;;;4.40;;
12112;SDS011;6120;52.250;8.478;2023-07-02T07:44:46;5.25;;;3.83;;
12112;SDS011;6120;52.250;8.478;2023-07-02T07:47:14;4.40;;;3.92;;
12112;SDS011;6120;52.250;8.478;2023-07-02T07:49:42;7.65;;;4.78;;
12112;SDS011;6120;52.250;8.478;2023-07-02T07:52:09;6.13;;;3.92;;
12112;SDS011;6120;52.250;8.478;2023-07-02T07:54:36;5.95;;;4.00;;
12112;SDS011;6120;52.250;8.478;2023-07-02T07:57:06;6.32;;;3.97;;
12112;SDS011;6120;52.250;8.478;2023-07-02T07:59:39;5.00;;;4.00;;
12112;SDS011;6120;52.250;8.478;2023-07-02T08:02:05;5.28;;;4.00;;
12112;SDS011;6120;52.250;8.478;2023-07-02T08:04:32;6.30;;;3.97;;
12112;SDS011;6120;52.250;8.478;2023-07-02T08:06:59;6.53;;;4.47;;
12112;SDS011;6120;52.250;8.478;2023-07-02T08:09:26;5.32;;;3.78;;
12112;SDS011;6120;52.250;8.478;2023-07-02T08:11:52;6.90;;;3.33;;
12112;SDS011;6120;52.250;8.478;2023-07-02T08:14:19;5.30;;;3.65;;
12112;SDS011;6120;52.250;8.478;2023-07-02T08:16:46;4.65;;;3.90;;
12112;SDS011;6120;52.250;8.478;2023-07-02T08:19:12;5.63;;;3.92;;
12112;SDS011;6120;52.250;8.478;2023-07-02T08:21:39;4.57;;;3.58;;
12112;SDS011;6120;52.250;8.478;2023-07-02T08:24:06;7.45;;;3.97;;
12112;SDS011;6120;52.250;8.478;2023-07-02T08:26:32;5.45;;;3.72;;
12112;SDS011;6120;52.250;8.478;2023-07-02T08:28:59;4.03;;;3.63;;
12112;SDS011;6120;52.250;8.478;2023-07-02T08:31:27;6.40;;;3.72;;
12112;SDS011;6120;52.250;8.478;2023-07-02T08:33:54;4.35;;;3.63;;
12112;SDS011;6120;52.250;8.478;2023-07-02T08:36:21;4.85;;;3.70;;
12112;SDS011;6120;52.250;8.478;2023-07-02T08:38:48;4.03;;;3.47;;
12112;SDS011;6120;52.250;8.478;2023-07-02T08:41:15;4.40;;;3.50;;
12112;SDS011;6120;52.250;8.478;2023-07-02T08:43:41;5.25;;;4.05;;
12112;SDS011;6120;52.250;8.478;2023-07-02T08:46:08;4.93;;;3.58;;
12112;SDS011;6120;52.250;8.478;2023-07-02T08:48:35;5.30;;;3.50;;
12112;SDS011;6120;52.250;8.478;2023-07-02T08:51:02;5.72;;;3.70;;
12112;SDS011;6120;52.250;8.478;2023-07-02T08:53:29;6.60;;;3.90;;
12112;SDS011;6120;52.250;8.478;2023-07-02T08:56:00;5.30;;;3.70;;
12112;SDS011;6120;52.250;8.478;2023-07-02T08:58:27;4.60;;;3.47;;
12112;SDS011;6120;52.250;8.478;2023-07-02T09:01:07;4.78;;;3.63;;
12112;SDS011;6120;52.250;8.478;2023-07-02T09:03:35;5.15;;;3.47;;
12112;SDS011;6120;52.250;8.478;2023-07-02T09:06:06;6.35;;;3.88;;
12112;SDS011;6120;52.250;8.478;2023-07-02T09:08:34;4.20;;;3.35;;
12112;SDS011;6120;52.250;8.478;2023-07-02T09:11:06;3.83;;;3.38;;
12112;SDS011;6120;52.250;8.478;2023-07-02T09:13:51;4.72;;;3.10;;
12112;SDS011;6120;52.250;8.478;2023-07-02T09:21:42;4.25;;;3.50;;
12112;SDS011;6120;52.250;8.478;2023-07-02T09:24:21;4.13;;;3.50;;
12112;SDS011;6120;52.250;8.478;2023-07-02T09:26:50;3.92;;;3.33;;
12112;SDS011;6120;52.250;8.478;2023-07-02T09:29:24;4.30;;;3.08;;
12112;SDS011;6120;52.250;8.478;2023-07-02T09:31:58;4.00;;;3.20;;
12112;SDS011;6120;52.250;8.478;2023-07-02T09:34:36;4.05;;;3.35;;
12112;SDS011;6120;52.250;8.478;2023-07-02T09:37:04;3.88;;;3.17;;
12112;SDS011;6120;52.250;8.478;2023-07-02T09:39:33;5.43;;;3.55;;
12112;SDS011;6120;52.250;8.478;2023-07-02T09:42:02;5.32;;;3.28;;
12112;SDS011;6120;52.250;8.478;2023-07-02T09:44:32;5.40;;;3.30;;
12112;SDS011;6120;52.250;8.478;2023-07-02T09:47:06;4.30;;;3.20;;
12112;SDS011;6120;52.250;8.478;2023-07-02T09:52:05;5.15;;;3.45;;
12112;SDS011;6120;52.250;8.478;2023-07-02T09:54:33;4.28;;;3.10;;
12112;SDS011;6120;52.250;8.478;2023-07-02T09:57:00;5.28;;;3.22;;
12112;SDS011;6120;52.250;8.478;2023-07-02T09:59:27;4.88;;;3.45;;
12112;SDS011;6120;52.250;8.478;2023-07-02T10:01:55;5.88;;;3.38;;
12112;SDS011;6120;52.250;8.478;2023-07-02T10:06:54;3.35;;;3.05;;
12112;SDS011;6120;52.250;8.478;2023-07-02T10:09:38;3.63;;;2.95;;
12112;SDS011;6120;52.250;8.478;2023-07-02T10:12:22;5.28;;;3.60;;
12112;SDS011;6120;52.250;8.478;2023-07-02T10:14:50;4.53;;;3.40;;
12112;SDS011;6120;52.250;8.478;2023-07-02T10:17:28;4.93;;;3.47;;
12112;SDS011;6120;52.250;8.478;2023-07-02T10:20:02;4.43;;;3.70;;
12112;SDS011;6120;52.250;8.478;2023-07-02T10:22:43;4.32;;;3.38;;
12112;SDS011;6120;52.250;8.478;2023-07-02T10:25:10;4.10;;;3.55;;
12112;SDS011;6120;52.250;8.478;2023-07-02T10:27:37;5.10;;;3.40;;
12112;SDS011;6120;52.250;8.478;2023-07-02T10:30:06;4.63;;;3.22;;
12112;SDS011;6120;52.250;8.478;2023-07-02T10:32:34;3.67;;;2.92;;
12112;SDS011;6120;52.250;8.478;2023-07-02T10:35:02;4.70;;;3.15;;
12112;SDS011;6120;52.250;8.478;2023-07-02T10:37:40;4.22;;;3.38;;
12112;SDS011;6120;52.250;8.478;2023-07-02T10:40:06;3.53;;;3.13;;
12112;SDS011;6120;52.250;8.478;2023-07-02T10:42:43;4.43;;;3.38;;
12112;SDS011;6120;52.250;8.478;2023-07-02T10:45:14;4.43;;;3.30;;
12112;SDS011;6120;52.250;8.478;2023-07-02T10:47:40;6.88;;;3.28;;
12112;SDS011;6120;52.250;8.478;2023-07-02T10:50:20;4.28;;;3.50;;
12112;SDS011;6120;52.250;8.478;2023-07-02T10:52:47;6.03;;;3.53;;
12112;SDS011;6120;52.250;8.478;2023-07-02T10:55:20;5.10;;;3.47;;
12112;SDS011;6120;52.250;8.478;2023-07-02T10:57:48;4.63;;;3.42;;
12112;SDS011;6120;52.250;8.478;2023-07-02T11:00:17;4.85;;;3.60;;
12112;SDS011;6120;52.250;8.478;2023-07-02T11:02:45;4.53;;;3.25;;
12112;SDS011;6120;52.250;8.478;2023-07-02T11:05:12;4.35;;;3.30;;
12112;SDS011;6120;52.250;8.478;2023-07-02T11:07:39;3.53;;;3.08;;
12112;SDS011;6120;52.250;8.478;2023-07-02T11:10:07;5.50;;;3.22;;
12112;SDS011;6120;52.250;8.478;2023-07-02T11:12:35;4.82;;;3.40;;
12112;SDS011;6120;52.250;8.478;2023-07-02T11:17:46;5.50;;;3.72;;
12112;SDS011;6120;52.250;8.478;2023-07-02T11:20:13;4.55;;;3.55;;
12112;SDS011;6120;52.250;8.478;2023-07-02T11:22:41;4.20;;;3.08;;
12112;SDS011;6120;52.250;8.478;2023-07-02T11:27:42;3.42;;;3.00;;
12112;SDS011;6120;52.250;8.478;2023-07-02T11:30:09;4.65;;;3.20;;
12112;SDS011;6120;52.250;8.478;2023-07-02T11:32:46;5.13;;;3.17;;
12112;SDS011;6120;52.250;8.478;2023-07-02T11:35:15;5.15;;;3.40;;
12112;SDS011;6120;52.250;8.478;2023-07-02T11:37:42;4.72;;;3.28;;
12112;SDS011;6120;52.250;8.478;2023-07-02T11:40:11;3.75;;;3.00;;
12112;SDS011;6120;52.250;8.478;2023-07-02T11:42:38;3.63;;;3.00;;
12112;SDS011;6120;52.250;8.478;2023-07-02T11:45:05;3.47;;;2.65;;
12112;SDS011;6120;52.250;8.478;2023-07-02T11:47:33;3.85;;;2.95;;
12112;SDS011;6120;52.250;8.478;2023-07-02T11:50:00;3.90;;;3.42;;
12112;SDS011;6120;52.250;8.478;2023-07-02T11:52:46;3.90;;;3.17;;
12112;SDS011;6120;52.250;8.478;2023-07-02T11:55:13;4.93;;;3.25;;
12112;SDS011;6120;52.250;8.478;2023-07-02T11:57:41;3.25;;;2.88;;
12112;SDS011;6120;52.250;8.478;2023-07-02T12:00:08;4.60;;;3.65;;
12112;SDS011;6120;52.250;8.478;2023-07-02T12:02:35;5.32;;;3.20;;
12112;SDS011;6120;52.250;8.478;2023-07-02T12:05:02;3.28;;;2.97;;
12112;SDS011;6120;52.250;8.478;2023-07-02T12:07:33;4.55;;;3.40;;
12112;SDS011;6120;52.250;8.478;2023-07-02T12:10:01;3.58;;;2.97;;
12112;SDS011;6120;52.250;8.478;2023-07-02T12:12:27;4.13;;;3.22;;
12112;SDS011;6120;52.250;8.478;2023-07-02T12:14:54;3.80;;;2.80;;
12112;SDS011;6120;52.250;8.478;2023-07-02T12:17:21;3.45;;;2.83;;
12112;SDS011;6120;52.250;8.478;2023-07-02T12:19:47;5.72;;;2.78;;
12112;SDS011;6120;52.250;8.478;2023-07-02T12:22:14;3.80;;;2.88;;
12112;SDS011;6120;52.250;8.478;2023-07-02T12:24:44;4.47;;;3.20;;
12112;SDS011;6120;52.250;8.478;2023-07-02T12:27:10;4.10;;;2.90;;
12112;SDS011;6120;52.250;8.478;2023-07-02T12:29:37;3.72;;;2.92;;
12112;SDS011;6120;52.250;8.478;2023-07-02T12:32:04;3.60;;;2.63;;
12112;SDS011;6120;52.250;8.478;2023-07-02T12:34:31;3.90;;;2.85;;
12112;SDS011;6120;52.250;8.478;2023-07-02T12:36:58;3.97;;;2.90;;
12112;SDS011;6120;52.250;8.478;2023-07-02T12:39:25;3.28;;;2.78;;
12112;SDS011;6120;52.250;8.478;2023-07-02T12:41:53;3.92;;;2.60;;
12112;SDS011;6120;52.250;8.478;2023-07-02T12:44:19;3.42;;;2.80;;
12112;SDS011;6120;52.250;8.478;2023-07-02T12:46:47;4.13;;;2.90;;
12112;SDS011;6120;52.250;8.478;2023-07-02T12:49:14;3.38;;;2.90;;
12112;SDS011;6120;52.250;8.478;2023-07-02T12:51:40;3.60;;;2.63;;
12112;SDS011;6120;52.250;8.478;2023-07-02T12:54:07;3.08;;;2.78;;
12112;SDS011;6120;52.250;8.478;2023-07-02T12:56:34;4.43;;;2.83;;
12112;SDS011;6120;52.250;8.478;2023-07-02T12:59:01;4.13;;;2.90;;
12112;SDS011;6120;52.250;8.478;2023-07-02T13:01:28;4.22;;;3.13;;
12112;SDS011;6120;52.250;8.478;2023-07-02T13:03:55;3.45;;;2.60;;
12112;SDS011;6120;52.250;8.478;2023-07-02T13:06:22;4.15;;;2.70;;
12112;SDS011;6120;52.250;8.478;2023-07-02T13:08:49;3.15;;;2.75;;
12112;SDS011;6120;52.250;8.478;2023-07-02T13:11:15;4.00;;;3.08;;
12112;SDS011;6120;52.250;8.478;2023-07-02T13:13:42;3.58;;;2.88;;
12112;SDS011;6120;52.250;8.478;2023-07-02T13:16:09;2.60;;;2.40;;
12112;SDS011;6120;52.250;8.478;2023-07-02T13:18:35;2.83;;;2.58;;
12112;SDS011;6120;52.250;8.478;2023-07-02T13:21:02;5.93;;;3.03;;
12112;SDS011;6120;52.250;8.478;2023-07-02T13:23:29;5.25;;;3.00;;
12112;SDS011;6120;52.250;8.478;2023-07-02T13:25:55;5.10;;;3.00;;
12112;SDS011;6120;52.250;8.478;2023-07-02T13:28:22;3.20;;;2.90;;
12112;SDS011;6120;52.250;8.478;2023-07-02T13:30:49;3.45;;;2.65;;
12112;SDS011;6120;52.250;8.478;2023-07-02T13:33:16;2.75;;;2.50;;
12112;SDS011;6120;52.250;8.478;2023-07-02T13:35:42;3.28;;;2.80;;
12112;SDS011;6120;52.250;8.478;2023-07-02T13:38:10;3.05;;;2.40;;
12112;SDS011;6120;52.250;8.478;2023-07-02T13:40:36;4.55;;;3.05;;
12112;SDS011;6120;52.250;8.478;2023-07-02T13:43:03;3.03;;;2.42;;
12112;SDS011;6120;52.250;8.478;2023-07-02T13:45:30;3.33;;;2.85;;
12112;SDS011;6120;52.250;8.478;2023-07-02T13:47:57;3.47;;;2.70;;
12112;SDS011;6120;52.250;8.478;2023-07-02T13:50:23;4.13;;;2.80;;
12112;SDS011;6120;52.250;8.478;2023-07-02T13:52:50;3.10;;;2.70;;
12112;SDS011;6120;52.250;8.478;2023-07-02T13:55:17;2.70;;;2.25;;
12112;SDS011;6120;52.250;8.478;2023-07-02T13:57:43;3.15;;;2.47;;
12112;SDS011;6120;52.250;8.478;2023-07-02T14:00:10;3.15;;;2.53;;
12112;SDS011;6120;52.250;8.478;2023-07-02T14:02:37;3.83;;;2.63;;
12112;SDS011;6120;52.250;8.478;2023-07-02T14:05:04;2.88;;;2.58;;
12112;SDS011;6120;52.250;8.478;2023-07-02T14:07:31;3.17;;;2.47;;
12112;SDS011;6120;52.250;8.478;2023-07-02T14:09:58;3.95;;;2.60;;
12112;SDS011;6120;52.250;8.478;2023-07-02T14:12:24;2.47;;;2.28;;
12112;SDS011;6120;52.250;8.478;2023-07-02T14:14:51;3.10;;;2.47;;
12112;SDS011;6120;52.250;8.478;2023-07-02T14:17:18;2.90;;;2.60;;
12112;SDS011;6120;52.250;8.478;2023-07-02T14:19:44;3.65;;;2.75;;
12112;SDS011;6120;52.250;8.478;2023-07-02T14:22:11;3.05;;;2.72;;
12112;SDS011;6120;52.250;8.478;2023-07-02T14:24:38;2.90;;;2.50;;
12112;SDS011;6120;52.250;8.478;2023-07-02T14:27:05;2.78;;;2.28;;
12112;SDS011;6120;52.250;8.478;2023-07-02T14:29:32;2.63;;;2.42;;
12112;SDS011;6120;52.250;8.478;2023-07-02T14:31:58;4.30;;;2.60;;
12112;SDS011;6120;52.250;8.478;2023-07-02T14:34:25;3.53;;;2.50;;
12112;SDS011;6120;52.250;8.478;2023-07-02T14:36:52;4.20;;;2.58;;
12112;SDS011;6120;52.250;8.478;2023-07-02T14:39:18;2.67;;;2.45;;
12112;SDS011;6120;52.250;8.478;2023-07-02T14:41:45;2.88;;;2.50;;
12112;SDS011;6120;52.250;8.478;2023-07-02T14:44:12;2.60;;;2.40;;
12112;SDS011;6120;52.250;8.478;2023-07-02T14:46:39;2.92;;;2.50;;
12112;SDS011;6120;52.250;8.478;2023-07-02T14:49:06;2.85;;;2.25;;
12112;SDS011;6120;52.250;8.478;2023-07-02T14:51:32;2.63;;;2.42;;
12112;SDS011;6120;52.250;8.478;2023-07-02T14:53:59;4.03;;;3.00;;
12112;SDS011;6120;52.250;8.478;2023-07-02T14:56:30;3.30;;;2.75;;
12112;SDS011;6120;52.250;8.478;2023-07-02T14:58:56;3.15;;;2.60;;
12112;SDS011;6120;52.250;8.478;2023-07-02T15:01:23;3.13;;;2.75;;
12112;SDS011;6120;52.250;8.478;2023-07-02T15:03:50;4.43;;;2.70;;
12112;SDS011;6120;52.250;8.478;2023-07-02T15:06:17;2.97;;;2.67;;
12112;SDS011;6120;52.250;8.478;2023-07-02T15:08:44;2.97;;;2.60;;
12112;SDS011;6120;52.250;8.478;2023-07-02T15:11:11;2.80;;;2.50;;
12112;SDS011;6120;52.250;8.478;2023-07-02T15:13:39;2.72;;;2.42;;
12112;SDS011;6120;52.250;8.478;2023-07-02T15:16:08;2.83;;;2.35;;
12112;SDS011;6120;52.250;8.478;2023-07-02T15:18:35;3.72;;;2.55;;
12112;SDS011;6120;52.250;8.478;2023-07-02T15:21:02;2.92;;;2.55;;